Terminal Aerodrome Forecast
Issued by NWS Cleveland, OH

Home | Current Version | Previous Version | Graphics & Text | Print | Product List | Glossary On
Versions: 1 2 3 4 5 6 7 8 9 10 11 12 13 14 15 16 17 18 19 20 21 22 23 24 25 26
000
FTUS41 KCLE 220323 AAB
TAFCLE
TAF AMD
KCLE 220323Z 2203/2306 18008KT P6SM VCSH OVC100
     FM220700 16005KT 6SM BR OVC035
      TEMPO 2209/2213 3SM BR BKN025
     FM221400 12005KT P6SM BKN035
     FM221800 06010KT P6SM BKN045=

USA.gov is the U.S. government's official web portal to all federal, state and local government web resources and services.